createdAt,value
2017-08-30T00:00:29.228Z,7.30
2017-08-30T00:02:57.053Z,7.90
2017-08-30T00:05:25.721Z,6.10
2017-08-30T00:07:53.430Z,6.77
2017-08-30T00:10:21.219Z,7.10
2017-08-30T00:12:48.989Z,7.20
2017-08-30T00:15:17.389Z,7.10
2017-08-30T00:17:45.270Z,8.03
2017-08-30T00:20:12.964Z,6.87
2017-08-30T00:22:40.718Z,8.43
2017-08-30T00:25:20.174Z,8.20
2017-08-30T00:27:48.835Z,7.07
2017-08-30T00:30:16.566Z,6.50
2017-08-30T00:32:44.421Z,6.67
2017-08-30T00:35:12.228Z,6.97
2017-08-30T00:37:40.707Z,7.10
2017-08-30T00:40:08.494Z,7.30
2017-08-30T00:42:36.239Z,8.73
2017-08-30T00:45:03.950Z,7.27
2017-08-30T00:47:31.744Z,7.50
2017-08-30T00:49:59.513Z,6.80
2017-08-30T00:52:27.293Z,6.77
2017-08-30T00:54:55.342Z,6.77
2017-08-30T00:57:23.037Z,7.03
2017-08-30T00:59:50.750Z,6.73
2017-08-30T01:02:18.497Z,8.50
2017-08-30T01:04:46.182Z,7.90
2017-08-30T01:07:13.921Z,7.83
2017-08-30T01:09:41.716Z,8.80
2017-08-30T01:12:09.434Z,7.90
2017-08-30T01:14:37.217Z,8.70
2017-08-30T01:17:04.980Z,7.23
2017-08-30T01:19:32.687Z,8.63
2017-08-30T01:22:00.459Z,7.70
2017-08-30T01:24:28.741Z,8.53
2017-08-30T01:26:56.501Z,6.70
2017-08-30T01:29:24.222Z,8.00
2017-08-30T01:31:51.930Z,8.77
2017-08-30T01:34:19.676Z,7.80
2017-08-30T01:36:47.374Z,7.10
2017-08-30T01:39:15.068Z,6.90
2017-08-30T01:41:42.848Z,7.17
2017-08-30T01:44:10.546Z,7.37
2017-08-30T01:46:38.328Z,7.13
2017-08-30T01:49:06.062Z,7.23
2017-08-30T01:51:33.790Z,7.03
2017-08-30T01:54:01.521Z,8.07
2017-08-30T01:56:29.349Z,6.40
2017-08-30T01:58:57.127Z,7.73
2017-08-30T02:01:24.819Z,6.80
2017-08-30T02:03:52.586Z,6.63
2017-08-30T02:06:20.372Z,6.93
2017-08-30T02:08:48.163Z,8.30
2017-08-30T02:11:15.877Z,7.50
2017-08-30T02:13:43.615Z,7.37
2017-08-30T02:16:11.297Z,8.00
2017-08-30T02:18:39.133Z,7.87
2017-08-30T02:21:06.837Z,7.47
2017-08-30T02:23:34.570Z,7.97
2017-08-30T02:26:02.379Z,7.10
2017-08-30T02:28:30.192Z,7.30
2017-08-30T02:30:58.385Z,8.07
2017-08-30T02:33:26.078Z,7.40
2017-08-30T02:35:53.823Z,7.07
2017-08-30T02:38:21.490Z,7.37
2017-08-30T02:40:49.300Z,7.93
2017-08-30T02:43:17.062Z,6.53
2017-08-30T02:45:44.824Z,5.93
2017-08-30T02:48:12.533Z,7.80
2017-08-30T02:50:40.296Z,7.17
2017-08-30T02:53:08.054Z,7.07
2017-08-30T02:55:35.799Z,7.13
2017-08-30T02:58:03.583Z,8.03
2017-08-30T03:00:31.293Z,7.70
2017-08-30T03:02:59.105Z,7.53
2017-08-30T03:05:26.797Z,8.20
2017-08-30T03:07:54.531Z,7.17
2017-08-30T03:10:22.298Z,7.87
2017-08-30T03:12:50.046Z,7.53
2017-08-30T03:15:17.739Z,8.73
2017-08-30T03:17:45.431Z,7.97
2017-08-30T03:20:13.214Z,6.97
2017-08-30T03:22:40.909Z,8.07
2017-08-30T03:25:08.634Z,7.50
2017-08-30T03:27:36.412Z,6.90
2017-08-30T03:30:04.153Z,7.07
2017-08-30T03:32:31.914Z,7.67
2017-08-30T03:34:59.616Z,7.83
2017-08-30T03:37:27.337Z,6.80
2017-08-30T03:39:55.144Z,6.90
2017-08-30T03:42:22.984Z,7.27
2017-08-30T03:44:50.678Z,6.97
2017-08-30T03:47:18.402Z,7.00
2017-08-30T03:49:46.168Z,8.97
2017-08-30T03:52:13.955Z,7.10
2017-08-30T03:54:41.729Z,7.70
2017-08-30T03:57:09.474Z,7.10
2017-08-30T03:59:37.215Z,7.27
2017-08-30T04:02:04.992Z,8.27
2017-08-30T04:04:32.775Z,8.47
2017-08-30T04:07:00.522Z,7.93
2017-08-30T04:09:29.206Z,8.50
2017-08-30T04:11:57.143Z,7.33
2017-08-30T04:14:24.936Z,7.03
2017-08-30T04:16:52.790Z,7.83
2017-08-30T04:19:20.557Z,7.50
2017-08-30T04:21:48.280Z,7.27
2017-08-30T04:24:16.027Z,7.37
2017-08-30T04:26:43.755Z,7.73
2017-08-30T04:29:11.498Z,8.10
2017-08-30T04:31:39.276Z,7.80
2017-08-30T04:34:07.004Z,7.00
2017-08-30T04:36:34.797Z,9.40
2017-08-30T04:39:02.561Z,8.20
2017-08-30T04:41:30.337Z,7.83
2017-08-30T04:43:58.049Z,8.10
2017-08-30T04:46:25.849Z,7.67
2017-08-30T04:48:53.573Z,9.67
2017-08-30T04:51:22.220Z,8.30
2017-08-30T04:53:50.068Z,8.00
2017-08-30T04:56:17.766Z,7.90
2017-08-30T04:58:45.527Z,8.60
2017-08-30T05:01:13.260Z,7.67
2017-08-30T05:03:41.022Z,7.60
2017-08-30T05:06:08.842Z,8.17
2017-08-30T05:08:36.620Z,7.30
2017-08-30T05:11:04.334Z,7.80
2017-08-30T05:13:32.085Z,6.90
2017-08-30T05:16:00.160Z,7.63
2017-08-30T05:18:27.925Z,8.77
2017-08-30T05:20:55.626Z,6.47
2017-08-30T05:23:23.395Z,6.50
2017-08-30T05:25:51.165Z,9.57
2017-08-30T05:28:18.906Z,6.70
2017-08-30T05:30:46.588Z,7.33
2017-08-30T05:33:14.380Z,6.20
2017-08-30T05:35:42.086Z,7.20
2017-08-30T05:38:10.126Z,6.97
2017-08-30T05:40:37.936Z,6.07
2017-08-30T05:43:05.686Z,7.43
2017-08-30T05:45:33.451Z,6.60
2017-08-30T05:48:01.240Z,6.77
2017-08-30T05:50:28.960Z,7.90
2017-08-30T05:52:56.759Z,7.13
2017-08-30T05:55:25.382Z,7.53
2017-08-30T05:57:53.138Z,7.30
2017-08-30T06:00:20.933Z,7.20
2017-08-30T06:02:48.742Z,9.30
2017-08-30T06:05:16.538Z,8.53
2017-08-30T06:07:44.315Z,9.50
2017-08-30T06:10:12.079Z,8.30
2017-08-30T06:12:39.832Z,8.97
2017-08-30T06:15:07.591Z,8.00
2017-08-30T06:17:35.637Z,9.80
2017-08-30T06:20:04.016Z,9.00
2017-08-30T06:22:31.846Z,8.20
2017-08-30T06:24:59.554Z,8.60
2017-08-30T06:27:27.368Z,8.03
2017-08-30T06:29:55.074Z,9.30
2017-08-30T06:32:22.845Z,6.93
2017-08-30T06:34:50.640Z,8.63
2017-08-30T06:37:18.440Z,8.43
2017-08-30T06:39:46.212Z,8.17
2017-08-30T06:42:13.913Z,7.80
2017-08-30T06:44:41.686Z,8.33
2017-08-30T06:47:10.071Z,7.10
2017-08-30T06:49:38.100Z,8.50
2017-08-30T06:52:05.943Z,7.87
2017-08-30T06:54:34.320Z,7.50
2017-08-30T06:57:03.932Z,7.07
2017-08-30T06:59:32.617Z,8.30
2017-08-30T07:02:00.760Z,7.17
2017-08-30T07:04:28.467Z,8.10
2017-08-30T07:06:56.266Z,8.47
2017-08-30T07:09:23.993Z,7.13
2017-08-30T07:11:51.752Z,7.40
2017-08-30T07:14:19.455Z,7.90
2017-08-30T07:16:47.242Z,8.80
2017-08-30T07:19:15.077Z,8.17
2017-08-30T07:21:42.889Z,9.43
2017-08-30T07:24:10.663Z,6.90
2017-08-30T07:26:38.483Z,7.70
2017-08-30T07:29:06.198Z,8.73
2017-08-30T07:31:33.964Z,9.40
2017-08-30T07:34:02.453Z,9.80
2017-08-30T07:36:30.224Z,8.53
2017-08-30T07:38:58.790Z,7.30
2017-08-30T07:41:26.543Z,8.80
2017-08-30T07:43:54.297Z,8.60
2017-08-30T07:46:22.103Z,9.30
2017-08-30T07:48:49.956Z,8.70
2017-08-30T07:51:17.788Z,8.50
2017-08-30T07:53:45.519Z,9.13
2017-08-30T07:56:13.282Z,8.93
2017-08-30T07:58:41.123Z,8.83
2017-08-30T08:01:08.881Z,9.67
2017-08-30T08:03:37.100Z,7.97
2017-08-30T08:06:04.827Z,9.00
2017-08-30T08:08:32.614Z,9.03
2017-08-30T08:11:00.414Z,9.10
2017-08-30T08:13:28.167Z,10.27
2017-08-30T08:15:55.965Z,10.03
2017-08-30T08:18:23.866Z,8.90
2017-08-30T08:20:51.655Z,10.17
2017-08-30T08:23:19.454Z,9.70
2017-08-30T08:25:47.309Z,9.80
2017-08-30T08:28:15.125Z,9.93
2017-08-30T08:30:42.914Z,9.60
2017-08-30T08:33:10.727Z,8.80
2017-08-30T08:35:38.540Z,8.60
2017-08-30T08:38:06.305Z,9.00
2017-08-30T08:40:34.019Z,8.70
2017-08-30T08:43:01.934Z,9.63
2017-08-30T08:45:29.720Z,9.20
2017-08-30T08:47:58.408Z,9.40
2017-08-30T08:50:26.163Z,9.10
2017-08-30T08:52:54.027Z,9.77
2017-08-30T08:55:21.745Z,9.90
2017-08-30T08:57:49.500Z,8.97
2017-08-30T09:00:17.235Z,9.37
2017-08-30T09:02:45.074Z,9.73
2017-08-30T09:05:12.869Z,8.60
2017-08-30T09:07:40.643Z,9.33
2017-08-30T09:10:08.489Z,9.17
2017-08-30T09:12:36.295Z,8.03
2017-08-30T09:15:04.146Z,8.83
2017-08-30T09:17:33.151Z,8.17
2017-08-30T09:20:00.914Z,9.20
2017-08-30T09:22:28.666Z,9.13
2017-08-30T09:24:56.413Z,7.40
2017-08-30T09:27:24.223Z,8.70
2017-08-30T09:29:52.822Z,8.47
2017-08-30T09:32:20.624Z,10.33
2017-08-30T09:34:48.462Z,9.00
2017-08-30T09:37:16.192Z,8.90
2017-08-30T09:39:43.964Z,8.80
2017-08-30T09:42:11.668Z,11.37
2017-08-30T09:44:40.506Z,10.07
2017-08-30T09:47:08.210Z,8.37
2017-08-30T09:49:37.640Z,8.27
2017-08-30T09:52:06.102Z,8.30
2017-08-30T09:54:33.890Z,7.53
2017-08-30T09:57:01.704Z,8.00
2017-08-30T09:59:29.529Z,7.43
2017-08-30T10:01:57.316Z,7.50
2017-08-30T10:04:25.231Z,8.43
2017-08-30T10:06:53.189Z,7.67
2017-08-30T10:09:20.922Z,8.30
2017-08-30T10:11:49.407Z,7.83
2017-08-30T10:14:17.315Z,9.33
2017-08-30T10:16:45.285Z,8.00
2017-08-30T10:19:13.089Z,8.70
2017-08-30T10:21:41.871Z,6.93
2017-08-30T10:24:09.635Z,7.33
2017-08-30T10:26:37.429Z,8.67
2017-08-30T10:29:05.598Z,7.23
2017-08-30T10:31:33.354Z,7.27
2017-08-30T10:34:02.719Z,7.20
2017-08-30T10:36:30.460Z,7.43
2017-08-30T10:38:58.265Z,7.03
2017-08-30T10:41:27.753Z,7.10
2017-08-30T10:43:55.498Z,7.63
2017-08-30T10:46:23.443Z,8.07
2017-08-30T10:48:51.286Z,7.50
2017-08-30T10:51:19.103Z,7.80
2017-08-30T10:53:46.866Z,6.70
2017-08-30T10:56:14.731Z,7.50
2017-08-30T10:58:42.494Z,7.10
2017-08-30T11:01:10.254Z,7.67
2017-08-30T11:03:38.009Z,6.60
2017-08-30T11:06:05.735Z,8.67
2017-08-30T11:08:33.589Z,7.70
2017-08-30T11:11:01.296Z,7.77
2017-08-30T11:13:29.039Z,8.83
2017-08-30T11:15:57.634Z,7.60
2017-08-30T11:18:25.419Z,6.33
2017-08-30T11:20:53.186Z,7.10
2017-08-30T11:23:20.990Z,7.43
2017-08-30T11:25:48.714Z,7.00
2017-08-30T11:28:16.527Z,7.47
2017-08-30T11:30:44.447Z,7.30
2017-08-30T11:33:12.346Z,7.83
2017-08-30T11:35:40.052Z,6.70
2017-08-30T11:38:07.845Z,9.10
2017-08-30T11:40:35.612Z,7.50
2017-08-30T11:43:03.446Z,7.30
2017-08-30T11:45:31.221Z,7.53
2017-08-30T11:47:59.604Z,7.03
2017-08-30T11:50:27.371Z,7.23
2017-08-30T11:52:55.105Z,7.50
2017-08-30T11:55:22.936Z,6.63
2017-08-30T11:57:50.685Z,9.30
2017-08-30T12:00:18.497Z,7.40
2017-08-30T12:02:46.204Z,7.60
2017-08-30T12:05:13.989Z,7.57
2017-08-30T12:08:05.490Z,6.87
2017-08-30T12:10:33.498Z,6.87
2017-08-30T12:13:01.226Z,7.17
2017-08-30T12:15:28.924Z,8.60
2017-08-30T12:17:56.694Z,8.10
2017-08-30T12:20:24.473Z,6.30
2017-08-30T12:22:52.227Z,6.70
2017-08-30T12:25:19.962Z,6.97
2017-08-30T12:27:47.775Z,6.10
2017-08-30T12:30:15.484Z,7.43
2017-08-30T12:32:43.285Z,7.20
2017-08-30T12:35:11.055Z,7.77
2017-08-30T12:37:44.450Z,6.10
2017-08-30T12:40:12.346Z,6.33
2017-08-30T12:42:40.133Z,6.63
2017-08-30T12:45:08.080Z,6.37
2017-08-30T12:47:35.916Z,5.67
2017-08-30T12:50:03.694Z,5.57
2017-08-30T12:52:31.489Z,7.17
2017-08-30T12:54:59.299Z,6.77
2017-08-30T12:57:27.015Z,6.90
2017-08-30T12:59:54.803Z,6.37
2017-08-30T13:02:22.570Z,7.30
2017-08-30T13:04:51.124Z,6.50
2017-08-30T13:07:18.907Z,6.90
2017-08-30T13:09:46.605Z,6.47
2017-08-30T13:12:14.387Z,7.03
2017-08-30T13:14:42.176Z,7.17
2017-08-30T13:17:10.179Z,7.40
2017-08-30T13:19:37.922Z,7.00
2017-08-30T13:22:05.858Z,7.10
2017-08-30T13:24:33.598Z,5.90
2017-08-30T13:27:01.388Z,7.93
2017-08-30T13:29:29.129Z,7.20
2017-08-30T13:31:57.807Z,7.13
2017-08-30T13:34:25.650Z,6.83
2017-08-30T13:36:53.446Z,7.30
2017-08-30T13:39:21.201Z,6.27
2017-08-30T13:41:48.906Z,5.67
2017-08-30T13:44:16.672Z,6.10
2017-08-30T13:46:44.359Z,6.73
2017-08-30T13:49:12.143Z,6.30
2017-08-30T13:51:39.896Z,5.90
2017-08-30T13:54:07.660Z,7.57
2017-08-30T13:56:35.415Z,6.00
2017-08-30T13:59:03.147Z,6.97
2017-08-30T14:01:30.985Z,7.07
2017-08-30T14:03:59.341Z,7.77
2017-08-30T14:06:27.139Z,6.87
2017-08-30T14:08:54.833Z,6.90
2017-08-30T14:11:22.543Z,6.63
2017-08-30T14:13:50.308Z,6.37
2017-08-30T14:16:18.051Z,6.03
2017-08-30T14:18:45.811Z,6.57
2017-08-30T14:21:13.541Z,6.10
2017-08-30T14:23:41.238Z,7.60
2017-08-30T14:26:09.023Z,6.80
2017-08-30T14:28:36.745Z,6.20
2017-08-30T14:31:04.492Z,6.60
2017-08-30T14:33:32.220Z,7.07
2017-08-30T14:35:59.926Z,5.80
2017-08-30T14:38:27.791Z,6.70
2017-08-30T14:40:55.555Z,6.50
2017-08-30T14:43:23.251Z,6.00
2017-08-30T14:45:51.040Z,6.47
2017-08-30T14:48:18.721Z,7.00
2017-08-30T14:50:46.503Z,6.40
2017-08-30T14:53:14.243Z,5.97
2017-08-30T14:55:42.023Z,5.83
2017-08-30T14:58:09.829Z,6.00
2017-08-30T15:00:37.611Z,6.43
2017-08-30T15:03:05.375Z,6.03
2017-08-30T15:05:33.095Z,5.60
2017-08-30T15:08:00.817Z,6.13
2017-08-30T15:10:28.619Z,6.37
2017-08-30T15:12:56.458Z,5.33
2017-08-30T15:15:24.206Z,5.40
2017-08-30T15:17:52.097Z,7.80
2017-08-30T15:20:19.842Z,6.20
2017-08-30T15:22:47.679Z,5.70
2017-08-30T15:25:15.516Z,6.47
2017-08-30T15:27:43.320Z,5.87
2017-08-30T15:30:11.109Z,6.80
2017-08-30T15:32:39.901Z,6.40
2017-08-30T15:35:07.674Z,7.07
2017-08-30T15:37:35.450Z,5.80
2017-08-30T15:40:03.180Z,7.03
2017-08-30T15:42:31.024Z,6.10
2017-08-30T15:44:58.723Z,5.87
2017-08-30T15:47:26.502Z,6.63
2017-08-30T15:49:54.176Z,6.40
2017-08-30T15:52:21.882Z,5.90
2017-08-30T15:54:49.650Z,5.77
2017-08-30T15:57:17.495Z,6.20
2017-08-30T15:59:45.304Z,6.43
2017-08-30T16:02:13.236Z,6.37
2017-08-30T16:04:41.091Z,7.50
2017-08-30T16:07:08.869Z,6.03
2017-08-30T16:09:36.766Z,6.50
2017-08-30T16:12:04.559Z,6.43
2017-08-30T16:14:32.550Z,5.90
2017-08-30T16:17:01.502Z,6.10
2017-08-30T16:19:30.335Z,5.53
2017-08-30T16:21:58.387Z,5.80
2017-08-30T16:24:26.149Z,6.30
2017-08-30T16:26:53.918Z,5.97
2017-08-30T16:29:21.661Z,6.00
2017-08-30T16:31:49.461Z,6.40
2017-08-30T16:34:17.195Z,6.73
2017-08-30T16:36:44.964Z,5.70
2017-08-30T16:39:12.672Z,6.10
2017-08-30T16:41:40.446Z,6.40
2017-08-30T16:44:08.372Z,6.30
2017-08-30T16:46:36.143Z,6.40
2017-08-30T16:49:03.884Z,6.77
2017-08-30T16:51:31.685Z,5.63
2017-08-30T16:53:59.445Z,6.10
2017-08-30T16:56:29.528Z,6.90
2017-08-30T16:58:57.300Z,6.30
2017-08-30T17:01:25.202Z,6.77
2017-08-30T17:03:52.913Z,6.60
2017-08-30T17:06:21.776Z,6.30
2017-08-30T17:08:49.523Z,6.43
2017-08-30T17:11:17.406Z,6.60
2017-08-30T17:13:45.204Z,5.40
2017-08-30T17:16:12.969Z,5.97
2017-08-30T17:18:40.837Z,6.30
2017-08-30T17:21:08.577Z,5.80
2017-08-30T17:23:36.262Z,5.50
2017-08-30T17:26:04.086Z,7.03
2017-08-30T17:28:31.925Z,6.13
2017-08-30T17:31:00.587Z,6.80
2017-08-30T17:33:28.555Z,6.07
2017-08-30T17:35:56.282Z,6.90
2017-08-30T17:38:24.149Z,8.30
2017-08-30T17:40:51.912Z,6.93
2017-08-30T17:43:19.695Z,6.97
2017-08-30T17:45:48.781Z,7.60
2017-08-30T17:48:17.619Z,7.00
2017-08-30T17:50:45.410Z,7.17
2017-08-30T17:53:13.198Z,7.73
2017-08-30T17:55:40.902Z,7.77
2017-08-30T17:58:08.661Z,6.03
2017-08-30T18:00:36.410Z,7.87
2017-08-30T18:03:04.154Z,6.73
2017-08-30T18:05:31.984Z,7.20
2017-08-30T18:08:00.357Z,8.00
2017-08-30T18:10:29.281Z,7.00
2017-08-30T18:12:57.209Z,6.43
2017-08-30T18:15:25.278Z,7.00
2017-08-30T18:17:53.363Z,8.03
2017-08-30T18:20:21.073Z,6.40
2017-08-30T18:22:48.840Z,7.03
2017-08-30T18:25:16.722Z,6.40
2017-08-30T18:27:44.597Z,6.40
2017-08-30T18:30:12.364Z,6.90
2017-08-30T18:32:40.134Z,8.40
2017-08-30T18:35:08.128Z,7.50
2017-08-30T18:37:36.012Z,7.57
2017-08-30T18:40:03.829Z,7.17
2017-08-30T18:42:31.681Z,7.40
2017-08-30T18:44:59.468Z,9.33
2017-08-30T18:47:27.296Z,8.47
2017-08-30T18:49:55.093Z,7.73
2017-08-30T18:52:22.930Z,7.97
2017-08-30T18:54:51.584Z,8.97
2017-08-30T18:57:19.815Z,8.00
2017-08-30T18:59:47.695Z,8.00
2017-08-30T19:02:15.424Z,7.67
2017-08-30T19:04:43.356Z,7.97
2017-08-30T19:07:11.849Z,7.33
2017-08-30T19:09:40.471Z,7.83
2017-08-30T19:12:08.438Z,7.43
2017-08-30T19:14:37.388Z,7.30
2017-08-30T19:17:06.123Z,7.40
2017-08-30T19:19:33.966Z,6.53
2017-08-30T19:22:03.066Z,7.40
2017-08-30T19:24:30.959Z,8.13
2017-08-30T19:26:58.894Z,8.30
2017-08-30T19:29:26.757Z,8.57
2017-08-30T19:31:54.978Z,7.97
2017-08-30T19:34:22.784Z,7.77
2017-08-30T19:36:50.532Z,7.70
2017-08-30T19:39:18.610Z,8.70
2017-08-30T19:41:46.409Z,8.00
2017-08-30T19:44:14.157Z,7.60
2017-08-30T19:46:42.029Z,8.60
2017-08-30T19:49:09.915Z,7.73
2017-08-30T19:51:37.729Z,8.23
2017-08-30T19:54:05.786Z,6.90
2017-08-30T19:56:33.616Z,7.50
2017-08-30T19:59:02.407Z,8.77
2017-08-30T20:01:30.237Z,8.57
2017-08-30T20:03:58.816Z,8.20
2017-08-30T20:06:26.581Z,9.17
2017-08-30T20:08:54.304Z,8.00
2017-08-30T20:11:22.205Z,8.30
2017-08-30T20:13:50.043Z,7.43
2017-08-30T20:16:17.930Z,8.00
2017-08-30T20:18:45.715Z,7.50
2017-08-30T20:21:13.481Z,10.30
2017-08-30T20:23:41.381Z,8.60
2017-08-30T20:26:09.199Z,7.97
2017-08-30T20:28:38.191Z,10.00
2017-08-30T20:31:05.913Z,6.63
2017-08-30T20:33:33.707Z,9.07
2017-08-30T20:36:01.516Z,9.03
2017-08-30T20:38:29.304Z,10.60
2017-08-30T20:40:57.060Z,8.53
2017-08-30T20:43:24.802Z,8.30
2017-08-30T20:45:52.540Z,8.67
2017-08-30T20:48:21.453Z,7.97
2017-08-30T20:50:49.342Z,8.63
2017-08-30T20:53:17.190Z,7.13
2017-08-30T20:55:44.878Z,7.77
2017-08-30T20:58:12.661Z,7.73
2017-08-30T21:00:40.450Z,8.93
2017-08-30T21:03:08.217Z,9.37
2017-08-30T21:05:35.997Z,9.27
2017-08-30T21:08:03.771Z,9.10
2017-08-30T21:10:31.459Z,9.07
2017-08-30T21:12:59.233Z,9.40
2017-08-30T21:15:27.024Z,8.37
2017-08-30T21:17:55.800Z,8.07
2017-08-30T21:20:23.612Z,8.43
2017-08-30T21:22:51.322Z,8.70
2017-08-30T21:25:19.107Z,9.07
2017-08-30T21:27:46.958Z,10.50
2017-08-30T21:30:14.754Z,10.17
2017-08-30T21:32:42.525Z,8.10
2017-08-30T21:35:10.709Z,8.77
2017-08-30T21:37:38.565Z,10.83
2017-08-30T21:40:06.483Z,8.40
2017-08-30T21:42:34.232Z,8.77
2017-08-30T21:45:01.992Z,9.10
2017-08-30T21:47:29.730Z,7.90
2017-08-30T21:49:57.484Z,8.03
2017-08-30T21:52:25.225Z,8.33
2017-08-30T21:54:52.942Z,8.67
2017-08-30T21:57:20.705Z,8.63
2017-08-30T21:59:48.466Z,8.87
2017-08-30T22:02:16.978Z,8.80
2017-08-30T22:04:44.670Z,8.50
2017-08-30T22:07:12.389Z,8.83
2017-08-30T22:09:40.116Z,8.30
2017-08-30T22:12:07.817Z,9.63
2017-08-30T22:14:35.613Z,10.43
2017-08-30T22:17:03.370Z,9.50
2017-08-30T22:19:31.111Z,10.20
2017-08-30T22:21:58.892Z,9.20
2017-08-30T22:24:26.590Z,8.77
2017-08-30T22:26:54.303Z,9.43
2017-08-30T22:29:22.062Z,9.10
2017-08-30T22:31:49.768Z,8.70
2017-08-30T22:34:18.569Z,10.77
2017-08-30T22:36:46.281Z,9.90
2017-08-30T22:39:14.134Z,10.67
2017-08-30T22:41:41.827Z,9.37
2017-08-30T22:44:09.557Z,9.57
2017-08-30T22:46:37.380Z,9.03
2017-08-30T22:49:05.074Z,10.07
2017-08-30T22:51:34.001Z,9.50
2017-08-30T22:54:02.493Z,9.50
2017-08-30T22:56:30.244Z,9.57
2017-08-30T22:58:58.754Z,8.90
2017-08-30T23:01:27.699Z,9.33
2017-08-30T23:03:57.336Z,9.87
2017-08-30T23:06:25.835Z,10.00
2017-08-30T23:08:54.290Z,9.80
2017-08-30T23:11:22.098Z,8.90
2017-08-30T23:13:49.847Z,9.87
2017-08-30T23:16:17.615Z,9.20
2017-08-30T23:18:45.349Z,8.80
2017-08-30T23:21:13.070Z,9.93
2017-08-30T23:23:42.155Z,8.67
2017-08-30T23:26:09.904Z,9.80
2017-08-30T23:28:37.651Z,9.30
2017-08-30T23:31:05.400Z,9.77
2017-08-30T23:33:33.119Z,11.43
2017-08-30T23:36:00.943Z,8.97
2017-08-30T23:38:29.469Z,9.63
2017-08-30T23:40:57.179Z,10.10
2017-08-30T23:43:24.947Z,10.57
2017-08-30T23:45:52.653Z,10.50
2017-08-30T23:48:20.368Z,10.50
2017-08-30T23:50:48.182Z,9.40
2017-08-30T23:53:15.900Z,9.97
2017-08-30T23:55:43.591Z,8.23
2017-08-30T23:58:11.401Z,9.37
